createdAt,value
2023-02-27T00:02:05.023Z,-2.50
2023-02-27T00:04:31.891Z,-2.60
2023-02-27T00:06:58.825Z,-2.60
2023-02-27T00:09:25.815Z,-2.70
2023-02-27T00:11:53.185Z,-2.70
2023-02-27T00:14:20.346Z,-2.70
2023-02-27T00:16:47.894Z,-2.70
2023-02-27T00:19:15.838Z,-2.70
2023-02-27T00:21:44.668Z,-2.70
2023-02-27T00:24:12.198Z,-2.70
2023-02-27T00:26:40.212Z,-2.80
2023-02-27T00:29:08.524Z,-2.80
2023-02-27T00:31:35.852Z,-2.80
2023-02-27T00:34:04.880Z,-2.90
2023-02-27T00:36:32.542Z,-2.90
2023-02-27T00:38:59.959Z,-2.90
2023-02-27T00:41:28.092Z,-2.90
2023-02-27T00:43:55.509Z,-2.90
2023-02-27T00:46:23.069Z,-3.00
2023-02-27T00:48:50.829Z,-3.00
2023-02-27T00:51:20.609Z,-2.90
2023-02-27T00:53:47.748Z,-3.00
2023-02-27T00:56:15.914Z,-3.00
2023-02-27T00:58:44.030Z,-3.00
2023-02-27T01:01:11.117Z,-3.00
2023-02-27T01:03:39.252Z,-3.10
2023-02-27T01:06:07.114Z,-3.20
2023-02-27T01:08:34.419Z,-3.20
2023-02-27T01:11:01.359Z,-3.20
2023-02-27T01:13:28.618Z,-3.20
2023-02-27T01:15:55.982Z,-3.20
2023-02-27T01:18:26.114Z,-3.10
2023-02-27T01:20:55.687Z,-3.10
2023-02-27T01:23:23.784Z,-3.10
2023-02-27T01:25:50.973Z,-3.10
2023-02-27T01:28:19.771Z,-3.20
2023-02-27T01:30:47.707Z,-3.10
2023-02-27T01:33:15.322Z,-3.10
2023-02-27T01:35:42.797Z,-3.10
2023-02-27T01:38:10.550Z,-3.10
2023-02-27T01:40:39.173Z,-3.10
2023-02-27T01:43:07.304Z,-3.10
2023-02-27T01:45:42.232Z,-3.10
2023-02-27T01:48:18.980Z,-3.10
2023-02-27T01:51:11.938Z,-3.10
2023-02-27T01:53:41.742Z,-3.10
2023-02-27T01:56:14.454Z,-3.00
2023-02-27T01:58:43.303Z,-3.00
2023-02-27T02:01:11.328Z,-3.00
2023-02-27T02:03:52.479Z,-3.00
2023-02-27T02:06:21.482Z,-3.10
2023-02-27T02:08:53.018Z,-3.20
2023-02-27T02:11:22.426Z,-3.20
2023-02-27T02:13:53.968Z,-3.20
2023-02-27T02:16:30.603Z,-3.30
2023-02-27T02:19:00.504Z,-3.40
2023-02-27T02:21:53.179Z,-3.40
2023-02-27T02:25:08.682Z,-3.40
2023-02-27T02:27:54.584Z,-3.50
2023-02-27T02:30:44.003Z,-3.50
2023-02-27T02:33:10.918Z,-3.50
2023-02-27T02:36:06.395Z,-3.60
2023-02-27T02:38:48.858Z,-3.60
2023-02-27T02:41:50.048Z,-3.60
2023-02-27T02:44:39.841Z,-3.60
2023-02-27T02:47:26.562Z,-3.60
2023-02-27T02:50:08.231Z,-3.60
2023-02-27T02:52:48.023Z,-3.70
2023-02-27T02:55:26.557Z,-3.70
2023-02-27T02:58:16.093Z,-3.80
2023-02-27T03:01:00.113Z,-3.80
2023-02-27T03:03:38.686Z,-3.80
2023-02-27T03:06:24.481Z,-3.80
2023-02-27T03:08:58.617Z,-3.90
2023-02-27T03:11:30.952Z,-3.90
2023-02-27T03:14:05.821Z,-3.90
2023-02-27T03:16:44.453Z,-3.90
2023-02-27T03:19:14.513Z,-3.90
2023-02-27T03:22:11.753Z,-4.00
2023-02-27T03:24:53.362Z,-4.00
2023-02-27T03:27:22.398Z,-4.00
2023-02-27T03:30:03.803Z,-4.10
2023-02-27T03:33:07.122Z,-4.10
2023-02-27T03:35:58.409Z,-4.10
2023-02-27T03:38:33.160Z,-4.10
2023-02-27T03:41:25.353Z,-4.20
2023-02-27T03:44:11.419Z,-4.20
2023-02-27T03:46:40.274Z,-4.20
2023-02-27T03:49:08.614Z,-4.30
2023-02-27T03:51:37.600Z,-4.30
2023-02-27T03:54:35.910Z,-4.30
2023-02-27T03:57:08.658Z,-4.30
2023-02-27T03:59:38.046Z,-4.20
2023-02-27T04:02:06.394Z,-4.30
2023-02-27T04:04:35.706Z,-4.30
2023-02-27T04:07:29.789Z,-4.30
2023-02-27T04:10:35.301Z,-4.30
2023-02-27T04:13:21.918Z,-4.30
2023-02-27T04:16:17.624Z,-4.30
2023-02-27T04:18:59.873Z,-4.30
2023-02-27T04:21:45.564Z,-4.20
2023-02-27T04:24:35.249Z,-4.20
2023-02-27T04:27:36.932Z,-4.20
2023-02-27T04:30:38.242Z,-4.20
2023-02-27T04:33:19.005Z,-4.10
2023-02-27T04:35:59.935Z,-4.20
2023-02-27T04:38:50.181Z,-4.20
2023-02-27T04:41:26.241Z,-4.20
2023-02-27T04:43:55.121Z,-4.30
2023-02-27T04:46:26.805Z,-4.30
2023-02-27T04:49:16.447Z,-4.30
2023-02-27T04:51:52.838Z,-4.30
2023-02-27T04:54:27.833Z,-4.40
2023-02-27T04:56:59.314Z,-4.40
2023-02-27T04:59:30.954Z,-4.40
2023-02-27T05:02:14.466Z,-4.40
2023-02-27T05:04:43.776Z,-4.40
2023-02-27T05:07:17.583Z,-4.40
2023-02-27T05:09:47.860Z,-4.40
2023-02-27T05:12:33.687Z,-4.40
2023-02-27T05:15:07.183Z,-4.40
2023-02-27T05:17:37.786Z,-4.50
2023-02-27T05:20:09.176Z,-4.50
2023-02-27T05:23:04.980Z,-4.60
2023-02-27T05:25:48.642Z,-4.50
2023-02-27T05:28:30.448Z,-4.60
2023-02-27T05:31:32.007Z,-4.60
2023-02-27T05:33:59.065Z,-4.60
2023-02-27T05:36:34.406Z,-4.60
2023-02-27T05:39:05.794Z,-4.60
2023-02-27T05:41:54.218Z,-4.60
2023-02-27T05:44:27.231Z,-4.60
2023-02-27T05:46:59.648Z,-4.60
2023-02-27T05:49:47.367Z,-4.60
2023-02-27T05:52:19.068Z,-4.50
2023-02-27T05:55:04.360Z,-4.50
2023-02-27T05:57:38.867Z,-4.50
2023-02-27T06:00:33.777Z,-4.40
2023-02-27T06:03:00.938Z,-4.40
2023-02-27T06:05:28.930Z,-4.40
2023-02-27T06:07:55.954Z,-4.30
2023-02-27T06:10:23.262Z,-4.30
2023-02-27T06:12:50.255Z,-4.20
2023-02-27T06:15:18.805Z,-4.20
2023-02-27T06:17:45.833Z,-4.20
2023-02-27T06:20:13.640Z,-4.20
2023-02-27T06:22:40.902Z,-4.20
2023-02-27T06:25:08.070Z,-4.10
2023-02-27T06:27:34.988Z,-4.00
2023-02-27T06:30:02.025Z,-4.00
2023-02-27T06:32:29.037Z,-4.00
2023-02-27T06:34:56.193Z,-3.90
2023-02-27T06:37:23.694Z,-3.80
2023-02-27T06:39:50.641Z,-3.70
2023-02-27T06:42:18.572Z,-3.60
2023-02-27T06:44:45.475Z,-3.50
2023-02-27T06:47:12.359Z,-3.50
2023-02-27T06:49:39.354Z,-3.40
2023-02-27T06:52:06.273Z,-3.30
2023-02-27T06:54:34.043Z,-3.20
2023-02-27T06:57:01.048Z,-3.10
2023-02-27T06:59:27.927Z,-2.90
2023-02-27T07:01:55.241Z,-2.90
2023-02-27T07:04:22.548Z,-2.80
2023-02-27T07:07:34.046Z,-2.70
2023-02-27T07:09:37.308Z,-2.60
2023-02-27T07:12:05.233Z,-2.40
2023-02-27T07:14:32.568Z,-2.10
2023-02-27T07:17:03.375Z,-1.80
2023-02-27T07:19:32.437Z,-1.50
2023-02-27T07:21:59.741Z,-1.30
2023-02-27T07:24:26.824Z,-1.20
2023-02-27T07:26:54.110Z,-1.00
2023-02-27T07:29:20.987Z,-0.80
2023-02-27T07:31:48.378Z,-0.50
2023-02-27T07:34:15.719Z,-0.10
2023-02-27T07:36:43.499Z,0.10
2023-02-27T07:39:12.939Z,0.50
2023-02-27T07:41:40.429Z,0.70
2023-02-27T07:44:08.638Z,0.90
2023-02-27T07:46:36.434Z,1.20
2023-02-27T07:49:03.712Z,1.40
2023-02-27T07:51:30.732Z,1.80
2023-02-27T07:53:58.667Z,2.00
2023-02-27T07:56:28.279Z,2.60
2023-02-27T07:58:55.317Z,2.90
2023-02-27T08:01:22.323Z,3.00
2023-02-27T08:03:49.263Z,2.90
2023-02-27T08:06:16.450Z,2.80
2023-02-27T08:08:43.433Z,2.50
2023-02-27T08:11:10.993Z,2.30
2023-02-27T08:16:25.419Z,1.90
2023-02-27T08:18:52.733Z,2.10
2023-02-27T08:21:19.729Z,2.70
2023-02-27T08:23:46.738Z,3.50
2023-02-27T08:26:13.975Z,4.10
2023-02-27T08:28:41.126Z,4.10
2023-02-27T08:31:08.171Z,3.80
2023-02-27T08:33:35.634Z,3.60
2023-02-27T08:36:02.812Z,3.90
2023-02-27T08:38:29.874Z,4.50
2023-02-27T08:40:56.861Z,5.10
2023-02-27T08:43:24.050Z,5.70
2023-02-27T08:45:51.473Z,6.10
2023-02-27T08:48:18.842Z,6.30
2023-02-27T08:50:47.072Z,6.50
2023-02-27T08:53:14.519Z,6.80
2023-02-27T08:55:42.742Z,7.10
2023-02-27T08:58:10.410Z,7.50
2023-02-27T09:00:37.478Z,7.70
2023-02-27T09:03:04.798Z,7.80
2023-02-27T09:05:35.352Z,7.90
2023-02-27T09:08:03.170Z,8.20
2023-02-27T09:10:30.816Z,8.40
2023-02-27T09:12:58.070Z,8.00
2023-02-27T09:15:25.739Z,7.60
2023-02-27T09:17:56.470Z,7.90
2023-02-27T09:20:23.661Z,8.00
2023-02-27T09:22:51.778Z,8.30
2023-02-27T09:25:18.767Z,8.70
2023-02-27T09:27:46.359Z,8.90
2023-02-27T09:30:13.572Z,9.00
2023-02-27T09:32:40.495Z,9.30
2023-02-27T09:35:09.465Z,9.20
2023-02-27T09:37:36.577Z,9.20
2023-02-27T09:40:06.201Z,9.30
2023-02-27T09:42:45.563Z,9.50
2023-02-27T09:45:30.836Z,9.60
2023-02-27T09:48:24.157Z,9.40
2023-02-27T09:50:52.695Z,9.50
2023-02-27T09:53:41.453Z,9.40
2023-02-27T09:56:41.196Z,9.40
2023-02-27T09:59:36.345Z,9.30
2023-02-27T10:02:21.709Z,9.30
2023-02-27T10:05:18.814Z,9.50
2023-02-27T10:08:01.124Z,9.40
2023-02-27T10:11:01.239Z,9.20
2023-02-27T10:13:49.772Z,8.90
2023-02-27T10:16:20.947Z,9.00
2023-02-27T10:19:00.393Z,9.20
2023-02-27T10:21:51.628Z,9.40
2023-02-27T10:24:26.628Z,9.10
2023-02-27T10:26:54.950Z,9.10
2023-02-27T10:29:31.558Z,9.20
2023-02-27T10:32:26.864Z,9.30
2023-02-27T10:35:27.747Z,9.30
2023-02-27T10:38:11.361Z,9.30
2023-02-27T10:40:41.299Z,9.30
2023-02-27T10:43:08.584Z,9.20
2023-02-27T10:45:37.034Z,9.10
2023-02-27T10:48:06.261Z,9.10
2023-02-27T10:50:36.868Z,9.20
2023-02-27T10:53:17.116Z,9.30
2023-02-27T10:55:47.692Z,9.20
2023-02-27T10:58:20.395Z,8.90
2023-02-27T11:00:56.148Z,8.80
2023-02-27T11:03:29.739Z,8.50
2023-02-27T11:06:06.785Z,8.30
2023-02-27T11:08:35.254Z,8.20
2023-02-27T11:11:11.982Z,8.30
2023-02-27T11:13:44.887Z,8.30
2023-02-27T11:16:13.867Z,8.50
2023-02-27T11:18:46.167Z,8.60
2023-02-27T11:21:24.158Z,8.90
2023-02-27T11:24:03.985Z,9.10
2023-02-27T11:26:40.769Z,8.80
2023-02-27T11:29:08.183Z,8.70
2023-02-27T11:31:37.820Z,8.70
2023-02-27T11:34:05.751Z,8.60
2023-02-27T11:36:45.466Z,8.50
2023-02-27T11:39:37.780Z,8.60
2023-02-27T11:42:26.129Z,8.70
2023-02-27T11:45:04.777Z,8.80
2023-02-27T11:47:40.015Z,8.80
2023-02-27T11:50:19.424Z,8.90
2023-02-27T11:53:04.460Z,9.00
2023-02-27T11:55:33.059Z,8.90
2023-02-27T11:58:09.667Z,8.90
2023-02-27T12:00:49.279Z,9.00
2023-02-27T12:03:31.066Z,8.70
2023-02-27T12:06:01.021Z,8.60
2023-02-27T12:08:55.056Z,8.60
2023-02-27T12:11:31.421Z,8.60
2023-02-27T12:14:23.904Z,8.60
2023-02-27T12:16:55.498Z,8.70
2023-02-27T12:19:34.295Z,8.70
2023-02-27T12:22:37.613Z,8.70
2023-02-27T12:25:46.735Z,8.50
2023-02-27T12:28:25.910Z,8.30
2023-02-27T12:31:32.666Z,8.20
2023-02-27T12:34:22.954Z,8.20
2023-02-27T12:36:52.071Z,7.80
2023-02-27T12:39:24.589Z,7.30
2023-02-27T12:42:19.773Z,7.20
2023-02-27T12:44:55.596Z,7.20
2023-02-27T12:47:53.549Z,7.40
2023-02-27T12:50:23.550Z,7.60
2023-02-27T12:53:10.371Z,7.70
2023-02-27T12:55:53.120Z,8.00
2023-02-27T12:58:44.879Z,8.40
2023-02-27T13:01:39.563Z,8.20
2023-02-27T13:04:42.450Z,8.00
2023-02-27T13:07:28.997Z,7.60
2023-02-27T13:10:02.114Z,7.50
2023-02-27T13:12:44.271Z,7.50
2023-02-27T13:15:28.315Z,7.50
2023-02-27T13:18:05.315Z,7.40
2023-02-27T13:20:50.603Z,7.30
2023-02-27T13:23:29.336Z,7.20
2023-02-27T13:25:59.161Z,7.10
2023-02-27T13:28:29.334Z,7.00
2023-02-27T13:31:52.922Z,7.00
2023-02-27T13:34:40.939Z,7.10
2023-02-27T13:37:09.845Z,7.00
2023-02-27T13:39:47.021Z,6.90
2023-02-27T13:42:26.648Z,6.70
2023-02-27T13:45:27.044Z,6.70
2023-02-27T13:47:55.527Z,6.70
2023-02-27T13:50:27.110Z,6.60
2023-02-27T13:52:54.392Z,6.60
2023-02-27T13:55:35.393Z,6.60
2023-02-27T13:58:04.128Z,6.60
2023-02-27T14:00:38.187Z,6.70
2023-02-27T14:03:35.226Z,6.70
2023-02-27T14:06:06.501Z,6.70
2023-02-27T14:08:47.624Z,6.50
2023-02-27T14:11:28.164Z,6.40
2023-02-27T14:13:57.204Z,6.20
2023-02-27T14:16:40.087Z,6.00
2023-02-27T14:19:16.751Z,6.00
2023-02-27T14:21:57.640Z,5.90
2023-02-27T14:24:36.322Z,5.90
2023-02-27T14:27:06.146Z,5.90
2023-02-27T14:29:35.253Z,6.00
2023-02-27T14:32:09.498Z,6.10
2023-02-27T14:34:38.255Z,6.20
2023-02-27T14:37:10.379Z,6.30
2023-02-27T14:39:40.312Z,6.40
2023-02-27T14:42:19.445Z,6.50
2023-02-27T14:44:48.208Z,6.40
2023-02-27T14:47:38.680Z,6.30
2023-02-27T14:50:29.028Z,6.00
2023-02-27T14:52:56.090Z,5.80
2023-02-27T14:55:35.717Z,5.60
2023-02-27T14:58:21.838Z,5.60
2023-02-27T15:01:03.884Z,5.50
2023-02-27T15:03:45.139Z,5.50
2023-02-27T15:06:21.790Z,5.60
2023-02-27T15:08:54.295Z,5.60
2023-02-27T15:11:23.782Z,5.70
2023-02-27T15:14:03.134Z,5.70
2023-02-27T15:16:36.119Z,5.70
2023-02-27T15:19:17.818Z,5.70
2023-02-27T15:21:51.703Z,5.80
2023-02-27T15:24:23.883Z,5.80
2023-02-27T15:27:01.714Z,5.80
2023-02-27T15:29:42.086Z,5.70
2023-02-27T15:32:36.725Z,5.70
2023-02-27T15:35:17.700Z,5.60
2023-02-27T15:37:59.485Z,5.60
2023-02-27T15:40:29.009Z,5.60
2023-02-27T15:42:57.141Z,5.60
2023-02-27T15:45:36.008Z,5.60
2023-02-27T15:48:04.734Z,5.50
2023-02-27T15:50:38.382Z,5.60
2023-02-27T15:53:08.229Z,5.60
2023-02-27T15:55:41.028Z,5.70
2023-02-27T15:58:29.753Z,5.70
2023-02-27T16:01:17.404Z,5.70
2023-02-27T16:03:50.090Z,5.70
2023-02-27T16:06:21.082Z,5.70
2023-02-27T16:08:53.053Z,5.70
2023-02-27T16:11:25.850Z,5.60
2023-02-27T16:13:55.094Z,5.50
2023-02-27T16:16:24.089Z,5.50
2023-02-27T16:18:56.255Z,5.40
2023-02-27T16:21:28.371Z,5.40
2023-02-27T16:24:15.368Z,5.30
2023-02-27T16:26:42.539Z,5.30
2023-02-27T16:29:24.484Z,5.30
2023-02-27T16:31:58.696Z,5.20
2023-02-27T16:34:44.766Z,5.20
2023-02-27T16:37:35.959Z,5.10
2023-02-27T16:40:14.405Z,5.00
2023-02-27T16:42:42.378Z,4.90
2023-02-27T16:45:21.349Z,4.80
2023-02-27T16:47:54.516Z,4.70
2023-02-27T16:50:23.937Z,4.60
2023-02-27T16:52:51.120Z,4.50
2023-02-27T16:55:18.536Z,4.50
2023-02-27T16:57:45.636Z,4.40
2023-02-27T17:00:18.215Z,4.40
2023-02-27T17:02:46.912Z,4.30
2023-02-27T17:05:15.363Z,4.30
2023-02-27T17:07:43.421Z,4.20
2023-02-27T17:10:16.201Z,4.10
2023-02-27T17:12:44.192Z,4.00
2023-02-27T17:15:11.507Z,3.90
2023-02-27T17:17:38.975Z,3.90
2023-02-27T17:20:10.574Z,3.80
2023-02-27T17:22:39.838Z,3.70
2023-02-27T17:25:08.678Z,3.60
2023-02-27T17:27:35.896Z,3.60
2023-02-27T17:30:03.851Z,3.50
2023-02-27T17:32:31.250Z,3.50
2023-02-27T17:34:59.342Z,3.40
2023-02-27T17:37:27.294Z,3.40
2023-02-27T17:39:55.064Z,3.30
2023-02-27T17:42:25.728Z,3.30
2023-02-27T17:44:55.767Z,3.30
2023-02-27T17:47:23.026Z,3.20
2023-02-27T17:49:50.114Z,3.20
2023-02-27T17:52:17.975Z,3.20
2023-02-27T17:54:45.227Z,3.20
2023-02-27T17:57:13.497Z,3.20
2023-02-27T17:59:41.113Z,3.10
2023-02-27T18:02:11.448Z,3.10
2023-02-27T18:04:38.592Z,3.10
2023-02-27T18:07:06.093Z,3.10
2023-02-27T18:09:33.297Z,3.00
2023-02-27T18:12:00.320Z,3.10
2023-02-27T18:14:27.318Z,3.10
2023-02-27T18:16:54.456Z,3.10
2023-02-27T18:19:23.245Z,3.10
2023-02-27T18:21:50.456Z,3.10
2023-02-27T18:24:17.516Z,3.10
2023-02-27T18:26:45.377Z,3.10
2023-02-27T18:29:14.119Z,3.10
2023-02-27T18:31:44.735Z,3.10
2023-02-27T18:34:12.798Z,3.00
2023-02-27T18:36:39.927Z,3.00
2023-02-27T18:39:07.831Z,3.00
2023-02-27T18:41:35.725Z,2.90
2023-02-27T18:44:03.968Z,2.90
2023-02-27T18:46:32.577Z,2.90
2023-02-27T18:48:59.990Z,2.90
2023-02-27T18:51:27.634Z,2.90
2023-02-27T18:53:54.808Z,2.80
2023-02-27T18:56:25.863Z,2.80
2023-02-27T18:58:54.076Z,2.80
2023-02-27T19:01:28.547Z,2.70
2023-02-27T19:04:00.659Z,2.70
2023-02-27T19:06:28.504Z,2.60
2023-02-27T19:08:57.863Z,2.60
2023-02-27T19:11:36.201Z,2.50
2023-02-27T19:14:05.937Z,2.50
2023-02-27T19:16:33.693Z,2.40
2023-02-27T19:19:02.256Z,2.30
2023-02-27T19:21:29.338Z,2.20
2023-02-27T19:23:56.510Z,2.10
2023-02-27T19:26:24.632Z,2.10
2023-02-27T19:28:53.939Z,2.00
2023-02-27T19:31:23.841Z,1.90
2023-02-27T19:33:51.598Z,1.80
2023-02-27T19:36:21.161Z,1.80
2023-02-27T19:38:48.896Z,1.70
2023-02-27T19:41:17.248Z,1.60
2023-02-27T19:43:44.820Z,1.60
2023-02-27T19:46:21.105Z,1.50
2023-02-27T19:48:48.342Z,1.40
2023-02-27T19:51:16.379Z,1.30
2023-02-27T19:53:51.240Z,1.30
2023-02-27T19:56:23.345Z,1.20
2023-02-27T19:58:51.094Z,1.10
2023-02-27T20:01:26.050Z,1.00
2023-02-27T20:03:53.581Z,1.00
2023-02-27T20:06:23.925Z,0.90
2023-02-27T20:08:53.106Z,0.80
2023-02-27T20:11:22.162Z,0.70
2023-02-27T20:13:51.642Z,0.70
2023-02-27T20:16:22.534Z,0.60
2023-02-27T20:18:50.512Z,0.60
2023-02-27T20:21:23.045Z,0.50
2023-02-27T20:23:51.831Z,0.40
2023-02-27T20:26:27.603Z,0.40
2023-02-27T20:28:58.564Z,0.30
2023-02-27T20:31:28.919Z,0.30
2023-02-27T20:33:57.680Z,0.20
2023-02-27T20:36:24.826Z,0.10
2023-02-27T20:38:52.035Z,0.10
2023-02-27T20:41:22.414Z,0.10
2023-02-27T20:43:50.694Z,0.10
2023-02-27T20:46:24.037Z,0.00
2023-02-27T20:48:52.172Z,0.00
2023-02-27T20:51:22.456Z,0.00
2023-02-27T20:53:52.063Z,-0.10
2023-02-27T20:56:25.009Z,-0.10
2023-02-27T20:58:52.287Z,-0.20
2023-02-27T21:01:20.565Z,-0.20
2023-02-27T21:03:50.794Z,-0.20
2023-02-27T21:06:19.276Z,-0.30
2023-02-27T21:08:52.904Z,-0.30
2023-02-27T21:11:31.314Z,-0.30
2023-02-27T21:14:02.692Z,-0.40
2023-02-27T21:16:30.093Z,-0.40
2023-02-27T21:18:57.515Z,-0.50
2023-02-27T21:21:30.980Z,-0.50
2023-02-27T21:23:59.392Z,-0.60
2023-02-27T21:26:38.009Z,-0.40
2023-02-27T21:29:07.183Z,-0.60
2023-02-27T21:31:36.054Z,-0.60
2023-02-27T21:34:10.512Z,-0.60
2023-02-27T21:36:44.260Z,-0.70
2023-02-27T21:39:26.524Z,-0.80
2023-02-27T21:41:53.918Z,-0.80
2023-02-27T21:44:26.794Z,-0.80
2023-02-27T21:46:54.822Z,-0.80
2023-02-27T21:49:24.420Z,-0.90
2023-02-27T21:51:52.511Z,-0.90
2023-02-27T21:54:20.970Z,-0.90
2023-02-27T21:56:49.523Z,-0.90
2023-02-27T21:59:18.090Z,-0.90
2023-02-27T22:01:49.024Z,-1.00
2023-02-27T22:04:18.812Z,-1.00
2023-02-27T22:06:46.402Z,-1.00
2023-02-27T22:09:13.596Z,-1.10
2023-02-27T22:11:42.684Z,-1.10
2023-02-27T22:14:11.887Z,-1.10
2023-02-27T22:16:40.953Z,-1.10
2023-02-27T22:19:10.889Z,-1.20
2023-02-27T22:21:39.801Z,-1.20
2023-02-27T22:24:07.836Z,-1.20
2023-02-27T22:26:37.365Z,-1.20
2023-02-27T22:29:06.705Z,-1.20
2023-02-27T22:31:36.693Z,-1.30
2023-02-27T22:34:21.211Z,-1.30
2023-02-27T22:36:52.370Z,-1.40
2023-02-27T22:39:20.728Z,-1.40
2023-02-27T22:41:48.438Z,-1.40
2023-02-27T22:44:16.625Z,-1.40
2023-02-27T22:46:47.305Z,-1.50
2023-02-27T22:49:21.442Z,-1.50
2023-02-27T22:51:51.256Z,-1.50
2023-02-27T22:54:20.804Z,-1.50
2023-02-27T22:56:51.428Z,-1.50
2023-02-27T22:59:19.442Z,-1.40
2023-02-27T23:01:48.334Z,-1.40
2023-02-27T23:04:17.435Z,-1.40
2023-02-27T23:06:45.530Z,-1.40
2023-02-27T23:09:19.604Z,-1.40
2023-02-27T23:11:47.697Z,-1.40
2023-02-27T23:14:16.303Z,-1.30
2023-02-27T23:16:47.712Z,-1.40
2023-02-27T23:19:17.896Z,-1.40
2023-02-27T23:21:45.838Z,-1.50
2023-02-27T23:24:17.149Z,-1.40
2023-02-27T23:26:50.112Z,-1.50
2023-02-27T23:29:17.962Z,-1.50
2023-02-27T23:31:45.741Z,-1.50
2023-02-27T23:34:14.122Z,-1.50
2023-02-27T23:36:41.857Z,-1.50
2023-02-27T23:39:10.881Z,-1.60
2023-02-27T23:41:38.556Z,-1.60
2023-02-27T23:44:05.975Z,-1.60
2023-02-27T23:46:33.650Z,-1.70
2023-02-27T23:49:01.689Z,-1.60
2023-02-27T23:51:30.616Z,-1.70
2023-02-27T23:53:58.946Z,-1.70
2023-02-27T23:56:29.730Z,-1.70
2023-02-27T23:59:00.285Z,-1.80
